createdAt,value
2018-02-15T00:02:08.555Z,13.52
2018-02-15T00:04:36.829Z,13.50
2018-02-15T00:07:04.334Z,14.15
2018-02-15T00:09:32.160Z,12.63
2018-02-15T00:11:59.696Z,12.15
2018-02-15T00:14:27.319Z,13.05
2018-02-15T00:16:55.239Z,12.55
2018-02-15T00:19:22.710Z,11.82
2018-02-15T00:21:54.963Z,13.90
2018-02-15T00:24:23.278Z,11.75
2018-02-15T00:26:51.205Z,12.90
2018-02-15T00:29:18.702Z,12.88
2018-02-15T00:31:46.524Z,13.30
2018-02-15T00:34:14.829Z,14.93
2018-02-15T00:36:42.310Z,13.00
2018-02-15T00:39:11.359Z,12.88
2018-02-15T00:41:38.865Z,14.02
2018-02-15T00:44:06.349Z,16.95
2018-02-15T00:46:34.237Z,13.70
2018-02-15T00:49:02.151Z,13.77
2018-02-15T00:51:29.933Z,13.60
2018-02-15T00:53:58.541Z,14.20
2018-02-15T00:56:26.400Z,11.57
2018-02-15T00:58:53.886Z,15.00
2018-02-15T01:01:22.000Z,11.98
2018-02-15T01:03:51.091Z,13.60
2018-02-15T01:06:19.939Z,11.25
2018-02-15T01:08:47.407Z,11.25
2018-02-15T01:11:15.003Z,10.70
2018-02-15T01:13:43.250Z,11.70
2018-02-15T01:16:10.726Z,11.63
2018-02-15T01:18:38.963Z,11.32
2018-02-15T01:21:10.493Z,10.88
2018-02-15T01:23:38.215Z,10.88
2018-02-15T01:26:06.467Z,11.65
2018-02-15T01:28:35.461Z,11.00
2018-02-15T01:31:03.689Z,11.20
2018-02-15T01:33:31.209Z,11.95
2018-02-15T01:35:59.784Z,11.60
2018-02-15T01:38:27.252Z,11.05
2018-02-15T01:40:55.510Z,11.65
2018-02-15T01:43:22.982Z,10.85
2018-02-15T01:45:51.218Z,12.43
2018-02-15T01:48:18.711Z,12.43
2018-02-15T01:50:46.957Z,11.52
2018-02-15T01:53:14.957Z,12.05
2018-02-15T01:55:43.423Z,11.95
2018-02-15T01:58:11.673Z,14.30
2018-02-15T02:00:39.517Z,10.95
2018-02-15T02:03:07.390Z,10.93
2018-02-15T02:05:35.354Z,12.40
2018-02-15T02:08:02.849Z,14.18
2018-02-15T02:10:31.044Z,13.25
2018-02-15T02:12:59.289Z,11.23
2018-02-15T02:15:27.113Z,11.23
2018-02-15T02:17:54.966Z,18.10
2018-02-15T02:20:22.450Z,11.52
2018-02-15T02:22:50.940Z,11.95
2018-02-15T02:25:18.784Z,11.52
2018-02-15T02:27:46.257Z,13.23
2018-02-15T02:30:13.743Z,11.88
2018-02-15T02:32:41.260Z,10.90
2018-02-15T02:35:08.734Z,12.20
2018-02-15T02:37:36.586Z,12.23
2018-02-15T02:40:04.091Z,12.25
2018-02-15T02:42:32.383Z,15.13
2018-02-15T02:45:00.188Z,11.82
2018-02-15T02:47:28.035Z,12.30
2018-02-15T02:49:55.490Z,12.85
2018-02-15T02:52:25.776Z,14.30
2018-02-15T02:54:53.596Z,12.75
2018-02-15T02:57:21.089Z,13.18
2018-02-15T02:59:48.576Z,13.05
2018-02-15T03:02:22.974Z,12.02
2018-02-15T03:04:51.795Z,14.32
2018-02-15T03:07:20.183Z,12.63
2018-02-15T03:09:48.206Z,12.90
2018-02-15T03:12:16.464Z,10.70
2018-02-15T03:14:44.282Z,12.27
2018-02-15T03:17:12.046Z,11.07
2018-02-15T03:19:40.331Z,12.85
2018-02-15T03:22:08.027Z,11.10
2018-02-15T03:24:35.578Z,12.00
2018-02-15T03:27:03.200Z,12.05
2018-02-15T03:29:31.428Z,12.18
2018-02-15T03:31:59.340Z,12.00
2018-02-15T03:34:26.802Z,12.20
2018-02-15T03:36:54.402Z,11.18
2018-02-15T03:39:23.653Z,11.40
2018-02-15T03:41:51.744Z,12.20
2018-02-15T03:44:19.278Z,12.75
2018-02-15T03:46:47.146Z,11.73
2018-02-15T03:49:15.121Z,12.30
2018-02-15T03:51:43.799Z,12.65
2018-02-15T03:54:11.603Z,12.48
2018-02-15T03:56:39.238Z,12.88
2018-02-15T03:59:07.498Z,14.10
2018-02-15T04:01:35.032Z,14.82
2018-02-15T04:04:03.331Z,12.98
2018-02-15T04:06:32.119Z,13.45
2018-02-15T04:09:00.375Z,14.07
2018-02-15T04:11:28.465Z,14.63
2018-02-15T04:13:56.337Z,15.38
2018-02-15T04:16:24.175Z,14.20
2018-02-15T04:18:52.696Z,17.92
2018-02-15T04:21:20.434Z,19.73
2018-02-15T04:23:48.515Z,17.90
2018-02-15T04:26:16.583Z,17.45
2018-02-15T04:28:45.160Z,19.90
2018-02-15T04:31:13.026Z,18.95
2018-02-15T04:33:40.908Z,20.77
2018-02-15T04:36:08.757Z,20.30
2018-02-15T04:38:37.077Z,21.15
2018-02-15T04:41:06.657Z,22.25
2018-02-15T04:43:34.606Z,23.08
2018-02-15T04:46:02.574Z,22.75
2018-02-15T04:48:30.347Z,23.05
2018-02-15T04:50:59.022Z,22.17
2018-02-15T04:53:26.743Z,24.55
2018-02-15T04:55:55.022Z,23.77
2018-02-15T04:58:23.643Z,23.52
2018-02-15T05:00:52.023Z,23.87
2018-02-15T05:03:19.884Z,22.98
2018-02-15T05:05:48.570Z,22.33
2018-02-15T05:08:17.468Z,22.80
2018-02-15T05:10:45.325Z,25.17
2018-02-15T05:13:12.948Z,26.48
2018-02-15T05:15:41.798Z,22.60
2018-02-15T05:18:10.725Z,25.08
2018-02-15T05:20:38.820Z,24.98
2018-02-15T05:23:06.368Z,26.27
2018-02-15T05:25:35.691Z,25.50
2018-02-15T05:28:04.581Z,29.65
2018-02-15T05:30:32.957Z,26.33
2018-02-15T05:33:00.826Z,27.25
2018-02-15T05:35:28.603Z,25.73
2018-02-15T05:37:56.454Z,26.17
2018-02-15T05:40:24.319Z,25.65
2018-02-15T05:42:53.004Z,26.80
2018-02-15T05:45:21.819Z,28.20
2018-02-15T05:47:49.656Z,25.27
2018-02-15T05:50:18.849Z,26.45
2018-02-15T05:52:47.337Z,27.77
2018-02-15T05:55:16.637Z,28.30
2018-02-15T05:57:46.135Z,26.80
2018-02-15T06:00:14.102Z,26.87
2018-02-15T06:02:42.480Z,27.35
2018-02-15T06:05:10.345Z,26.58
2018-02-15T06:07:38.973Z,26.70
2018-02-15T06:10:07.988Z,26.40
2018-02-15T06:12:37.350Z,30.50
2018-02-15T06:15:05.136Z,27.48
2018-02-15T06:17:33.623Z,28.60
2018-02-15T06:20:02.058Z,29.65
2018-02-15T06:22:31.125Z,28.38
2018-02-15T06:25:00.913Z,28.92
2018-02-15T06:27:31.797Z,28.25
2018-02-15T06:29:59.627Z,29.23
2018-02-15T06:32:28.955Z,28.45
2018-02-15T06:34:57.434Z,30.52
2018-02-15T06:37:25.402Z,29.87
2018-02-15T06:39:53.020Z,30.62
2018-02-15T06:42:21.732Z,28.67
2018-02-15T06:44:49.616Z,27.10
2018-02-15T06:47:18.193Z,28.25
2018-02-15T06:49:46.592Z,27.85
2018-02-15T06:52:14.745Z,28.75
2018-02-15T06:54:44.147Z,27.08
2018-02-15T06:57:13.446Z,24.90
2018-02-15T06:59:41.241Z,29.00
2018-02-15T07:02:09.792Z,30.15
2018-02-15T07:04:38.460Z,26.27
2018-02-15T07:07:06.341Z,25.90
2018-02-15T07:09:34.083Z,27.55
2018-02-15T07:12:02.686Z,25.00
2018-02-15T07:14:31.166Z,23.55
2018-02-15T07:16:59.928Z,22.85
2018-02-15T07:19:30.073Z,23.48
2018-02-15T07:21:57.983Z,23.50
2018-02-15T07:24:26.012Z,22.95
2018-02-15T07:26:55.037Z,20.80
2018-02-15T07:29:23.777Z,21.05
2018-02-15T07:31:51.645Z,21.62
2018-02-15T07:34:19.723Z,18.75
2018-02-15T07:36:47.868Z,19.40
2018-02-15T07:39:17.914Z,19.58
2018-02-15T07:41:46.700Z,21.75
2018-02-15T07:44:14.822Z,18.67
2018-02-15T07:46:42.739Z,18.80
2018-02-15T07:49:13.233Z,18.12
2018-02-15T07:51:41.035Z,19.85
2018-02-15T07:54:09.405Z,20.98
2018-02-15T07:56:37.581Z,17.67
2018-02-15T07:59:05.444Z,16.85
2018-02-15T08:01:33.628Z,17.17
2018-02-15T08:04:01.599Z,18.80
2018-02-15T08:06:30.964Z,17.50
2018-02-15T08:08:59.984Z,19.23
2018-02-15T08:11:28.615Z,18.70
2018-02-15T08:13:56.425Z,18.02
2018-02-15T08:16:24.402Z,18.35
2018-02-15T08:18:52.476Z,18.83
2018-02-15T08:21:22.548Z,17.77
2018-02-15T08:23:51.114Z,17.95
2018-02-15T08:26:18.727Z,19.45
2018-02-15T08:28:47.407Z,18.80
2018-02-15T08:31:15.923Z,19.40
2018-02-15T08:33:43.455Z,18.15
2018-02-15T08:36:12.027Z,15.57
2018-02-15T08:38:39.896Z,18.30
2018-02-15T08:41:08.978Z,16.75
2018-02-15T08:43:36.860Z,17.25
2018-02-15T08:46:04.678Z,17.55
2018-02-15T08:48:32.970Z,17.92
2018-02-15T08:51:01.634Z,17.33
2018-02-15T08:53:31.678Z,17.10
2018-02-15T08:56:01.315Z,18.42
2018-02-15T08:58:30.598Z,17.87
2018-02-15T09:00:58.924Z,18.80
2018-02-15T09:03:27.507Z,19.52
2018-02-15T09:05:55.095Z,18.15
2018-02-15T09:08:22.601Z,18.98
2018-02-15T09:10:50.786Z,19.50
2018-02-15T09:13:19.503Z,17.60
2018-02-15T09:15:48.114Z,18.92
2018-02-15T09:18:16.286Z,18.00
2018-02-15T09:20:44.844Z,18.23
2018-02-15T09:23:13.134Z,18.10
2018-02-15T09:25:40.667Z,19.52
2018-02-15T09:28:08.938Z,17.17
2018-02-15T09:30:37.344Z,19.23
2018-02-15T09:33:04.871Z,17.08
2018-02-15T09:35:33.474Z,19.60
2018-02-15T09:38:01.616Z,17.85
2018-02-15T09:40:30.456Z,18.23
2018-02-15T09:42:57.955Z,18.27
2018-02-15T09:45:25.883Z,17.48
2018-02-15T09:47:53.401Z,18.27
2018-02-15T09:50:22.062Z,25.65
2018-02-15T09:52:49.794Z,18.45
2018-02-15T09:55:18.264Z,16.87
2018-02-15T09:57:45.891Z,18.67
2018-02-15T10:00:14.702Z,17.90
2018-02-15T10:02:42.481Z,18.60
2018-02-15T10:05:10.049Z,18.50
2018-02-15T10:07:38.148Z,18.17
2018-02-15T10:10:06.603Z,19.17
2018-02-15T10:12:34.203Z,18.45
2018-02-15T10:15:02.864Z,19.20
2018-02-15T10:17:31.101Z,17.12
2018-02-15T10:19:59.031Z,18.10
2018-02-15T10:22:27.593Z,19.80
2018-02-15T10:24:55.130Z,18.95
2018-02-15T10:27:22.624Z,20.58
2018-02-15T10:29:50.891Z,18.92
2018-02-15T10:32:19.318Z,21.02
2018-02-15T10:34:47.633Z,20.60
2018-02-15T10:37:17.005Z,21.62
2018-02-15T10:39:44.969Z,21.92
2018-02-15T10:42:13.886Z,18.80
2018-02-15T10:44:41.574Z,20.52
2018-02-15T10:47:10.198Z,20.95
2018-02-15T10:49:38.119Z,20.80
2018-02-15T10:52:07.723Z,21.08
2018-02-15T10:54:36.205Z,19.92
2018-02-15T10:57:04.707Z,16.20
2018-02-15T10:59:33.416Z,20.30
2018-02-15T11:02:06.664Z,19.67
2018-02-15T11:04:35.029Z,19.90
2018-02-15T11:07:03.437Z,18.75
2018-02-15T11:09:32.342Z,19.00
2018-02-15T11:12:00.906Z,17.62
2018-02-15T11:14:29.291Z,18.95
2018-02-15T11:16:57.025Z,30.23
2018-02-15T11:19:26.313Z,18.90
2018-02-15T11:21:53.860Z,19.08
2018-02-15T11:24:22.057Z,17.70
2018-02-15T11:26:49.622Z,19.25
2018-02-15T11:29:17.957Z,22.05
2018-02-15T11:31:46.356Z,19.75
2018-02-15T11:34:14.795Z,17.90
2018-02-15T11:36:42.345Z,18.90
2018-02-15T11:39:11.497Z,18.00
2018-02-15T11:41:40.143Z,19.75
2018-02-15T11:44:07.741Z,17.50
2018-02-15T11:46:37.101Z,19.77
2018-02-15T11:49:05.676Z,19.75
2018-02-15T11:51:33.253Z,18.90
2018-02-15T11:54:01.715Z,17.33
2018-02-15T11:56:29.236Z,18.42
2018-02-15T11:58:57.518Z,17.95
2018-02-15T12:01:25.078Z,17.35
2018-02-15T12:03:53.386Z,20.02
2018-02-15T12:06:21.249Z,18.83
2018-02-15T12:08:49.120Z,17.08
2018-02-15T12:11:16.673Z,17.52
2018-02-15T12:13:44.284Z,15.70
2018-02-15T12:16:13.296Z,16.27
2018-02-15T12:18:41.419Z,15.65
2018-02-15T12:21:10.880Z,15.30
2018-02-15T12:23:38.527Z,18.92
2018-02-15T12:26:07.145Z,16.62
2018-02-15T12:28:34.671Z,16.42
2018-02-15T12:37:00.613Z,15.35
2018-02-15T12:39:28.256Z,15.70
2018-02-15T12:41:56.410Z,16.65
2018-02-15T12:44:24.782Z,16.35
2018-02-15T12:46:54.549Z,18.20
2018-02-15T12:49:23.358Z,16.90
2018-02-15T12:51:50.989Z,18.45
2018-02-15T12:54:19.411Z,15.82
2018-02-15T12:56:46.926Z,16.33
2018-02-15T12:59:14.468Z,16.23
2018-02-15T13:01:42.892Z,18.83
2018-02-15T13:04:11.264Z,16.90
2018-02-15T13:06:40.943Z,18.75
2018-02-15T13:09:10.996Z,18.00
2018-02-15T13:11:40.388Z,15.13
2018-02-15T13:14:11.950Z,15.95
2018-02-15T13:16:52.279Z,15.45
2018-02-15T13:19:33.447Z,18.65
2018-02-15T13:22:01.025Z,18.02
2018-02-15T13:24:29.842Z,15.40
2018-02-15T13:26:57.628Z,14.05
2018-02-15T13:29:25.872Z,16.20
2018-02-15T13:31:53.535Z,15.48
2018-02-15T13:34:22.085Z,17.50
2018-02-15T13:36:51.529Z,15.45
2018-02-15T13:39:20.145Z,19.17
2018-02-15T13:41:48.913Z,16.00
2018-02-15T13:44:18.031Z,16.90
2018-02-15T13:46:45.640Z,16.80
2018-02-15T13:49:13.599Z,16.05
2018-02-15T13:51:41.802Z,16.55
2018-02-15T13:54:10.271Z,19.20
2018-02-15T13:56:39.089Z,18.75
2018-02-15T13:59:07.293Z,19.33
2018-02-15T14:01:35.964Z,19.08
2018-02-15T14:04:04.649Z,16.30
2018-02-15T14:06:32.612Z,18.35
2018-02-15T14:09:00.134Z,17.00
2018-02-15T14:11:27.950Z,18.60
2018-02-15T14:13:56.585Z,16.17
2018-02-15T14:16:24.984Z,14.80
2018-02-15T14:18:53.181Z,16.17
2018-02-15T14:21:22.319Z,16.10
2018-02-15T14:23:50.680Z,14.98
2018-02-15T14:26:18.508Z,13.70
2018-02-15T14:28:46.061Z,15.35
2018-02-15T14:31:13.675Z,14.60
2018-02-15T14:33:42.286Z,23.35
2018-02-15T14:36:10.230Z,15.63
2018-02-15T14:38:38.284Z,15.50
2018-02-15T14:41:08.370Z,14.32
2018-02-15T14:43:36.284Z,13.80
2018-02-15T14:46:04.750Z,14.10
2018-02-15T14:48:32.594Z,12.85
2018-02-15T14:51:00.929Z,13.60
2018-02-15T14:53:28.523Z,13.32
2018-02-15T14:55:56.842Z,13.13
2018-02-15T14:58:24.416Z,14.20
2018-02-15T15:00:51.941Z,14.85
2018-02-15T15:03:20.558Z,14.40
2018-02-15T15:05:49.127Z,16.42
2018-02-15T15:08:16.964Z,12.93
2018-02-15T15:10:44.966Z,19.33
2018-02-15T15:13:12.488Z,19.17
2018-02-15T15:15:40.094Z,15.70
2018-02-15T15:18:07.936Z,14.70
2018-02-15T15:20:35.473Z,16.15
2018-02-15T15:23:03.296Z,13.98
2018-02-15T15:25:30.821Z,13.80
2018-02-15T15:27:58.752Z,13.75
2018-02-15T15:30:27.169Z,13.48
2018-02-15T15:32:54.710Z,15.07
2018-02-15T15:35:22.602Z,14.43
2018-02-15T15:37:50.550Z,13.10
2018-02-15T15:40:18.318Z,14.75
2018-02-15T15:42:45.862Z,14.55
2018-02-15T15:45:13.708Z,13.20
2018-02-15T15:47:41.757Z,13.80
2018-02-15T15:50:09.377Z,15.63
2018-02-15T15:52:37.619Z,17.00
2018-02-15T15:55:05.482Z,16.12
2018-02-15T15:57:33.989Z,22.30
2018-02-15T16:00:02.744Z,17.70
2018-02-15T16:02:31.438Z,18.60
2018-02-15T16:04:59.971Z,17.73
2018-02-15T16:07:27.779Z,15.70
2018-02-15T16:09:55.671Z,16.95
2018-02-15T16:12:23.655Z,17.70
2018-02-15T16:14:51.436Z,18.05
2018-02-15T16:17:19.369Z,15.07
2018-02-15T16:19:47.442Z,13.75
2018-02-15T16:22:16.101Z,20.55
2018-02-15T16:24:43.698Z,16.48
2018-02-15T16:27:11.552Z,14.68
2018-02-15T16:29:40.097Z,14.95
2018-02-15T16:32:08.403Z,12.02
2018-02-15T16:34:37.433Z,11.85
2018-02-15T16:37:05.001Z,13.13
2018-02-15T16:39:33.288Z,12.45
2018-02-15T16:42:01.921Z,20.40
2018-02-15T16:44:31.503Z,14.45
2018-02-15T16:47:00.616Z,14.63
2018-02-15T16:49:28.171Z,15.73
2018-02-15T16:51:56.113Z,11.40
2018-02-15T16:54:25.468Z,12.52
2018-02-15T16:56:53.511Z,11.93
2018-02-15T16:59:21.972Z,13.02
2018-02-15T17:01:49.878Z,12.02
2018-02-15T17:04:17.934Z,14.02
2018-02-15T17:06:45.451Z,12.15
2018-02-15T17:09:14.580Z,12.73
2018-02-15T17:11:42.525Z,11.23
2018-02-15T17:14:10.729Z,11.73
2018-02-15T17:16:38.894Z,13.18
2018-02-15T17:19:06.692Z,21.05
2018-02-15T17:21:34.592Z,16.12
2018-02-15T17:24:03.270Z,13.25
2018-02-15T17:26:31.932Z,12.20
2018-02-15T17:28:59.487Z,12.80
2018-02-15T17:31:29.801Z,12.95
2018-02-15T17:33:59.185Z,14.63
2018-02-15T17:36:26.720Z,14.25
2018-02-15T17:38:54.268Z,12.60
2018-02-15T17:41:22.006Z,13.50
2018-02-15T17:43:49.534Z,14.93
2018-02-15T17:46:17.049Z,12.93
2018-02-15T17:48:44.619Z,13.70
2018-02-15T17:51:12.252Z,12.52
2018-02-15T17:53:40.528Z,16.58
2018-02-15T17:56:09.224Z,16.62
2018-02-15T17:58:36.765Z,15.55
2018-02-15T18:01:05.649Z,13.32
2018-02-15T18:03:34.282Z,14.00
2018-02-15T18:06:01.829Z,13.55
2018-02-15T18:08:30.156Z,14.13
2018-02-15T18:10:57.874Z,13.00
2018-02-15T18:13:25.435Z,13.93
2018-02-15T18:15:52.964Z,13.90
2018-02-15T18:18:20.468Z,12.68
2018-02-15T18:20:47.972Z,12.77
2018-02-15T18:23:16.624Z,12.90
2018-02-15T18:25:44.124Z,14.02
2018-02-15T18:28:12.689Z,14.40
2018-02-15T18:30:41.107Z,17.70
2018-02-15T18:33:08.660Z,14.00
2018-02-15T18:35:36.193Z,13.18
2018-02-15T18:38:04.455Z,45.63
2018-02-15T18:40:32.852Z,17.15
2018-02-15T18:43:00.376Z,15.65
2018-02-15T18:45:27.916Z,13.60
2018-02-15T18:47:56.477Z,13.90
2018-02-15T18:50:23.992Z,14.75
2018-02-15T18:52:52.288Z,13.80
2018-02-15T18:55:20.768Z,13.95
2018-02-15T18:57:48.323Z,14.10
2018-02-15T19:00:15.891Z,14.05
2018-02-15T19:02:43.540Z,15.15
2018-02-15T19:05:12.248Z,16.02
2018-02-15T19:07:40.393Z,17.20
2018-02-15T19:10:08.334Z,14.70
2018-02-15T19:12:35.910Z,15.88
2018-02-15T19:15:04.224Z,16.87
2018-02-15T19:17:32.821Z,19.98
2018-02-15T19:20:00.973Z,17.65
2018-02-15T19:22:28.500Z,18.73
2018-02-15T19:24:56.412Z,19.15
2018-02-15T19:27:24.381Z,19.08
2018-02-15T19:29:52.209Z,24.90
2018-02-15T19:32:20.225Z,18.95
2018-02-15T19:34:47.745Z,19.33
2018-02-15T19:37:15.258Z,17.55
2018-02-15T19:39:42.776Z,52.38
2018-02-15T19:42:10.316Z,24.33
2018-02-15T19:44:38.013Z,18.23
2018-02-15T19:47:05.543Z,20.12
2018-02-15T19:49:33.072Z,17.30
2018-02-15T19:52:01.490Z,16.58
2018-02-15T19:54:29.155Z,20.40
2018-02-15T19:56:56.697Z,18.17
2018-02-15T20:02:18.429Z,16.50
2018-02-15T20:04:46.344Z,44.17
2018-02-15T20:07:13.853Z,25.30
2018-02-15T20:09:41.566Z,21.60
2018-02-15T20:12:09.113Z,20.12
2018-02-15T20:14:36.998Z,26.52
2018-02-15T20:17:04.520Z,23.17
2018-02-15T20:19:32.028Z,21.75
2018-02-15T20:22:00.330Z,20.45
2018-02-15T20:24:28.649Z,20.37
2018-02-15T20:30:01.534Z,18.83
2018-02-15T20:32:29.462Z,24.50
2018-02-15T20:34:57.601Z,39.45
2018-02-15T20:37:25.771Z,24.35
2018-02-15T20:39:59.400Z,22.33
2018-02-15T20:42:28.012Z,21.08
2018-02-15T20:44:56.492Z,22.25
2018-02-15T20:47:24.049Z,23.23
2018-02-15T20:49:57.405Z,25.00
2018-02-15T20:52:31.678Z,25.27
2018-02-15T20:55:04.956Z,23.67
2018-02-15T20:57:32.716Z,23.48
2018-02-15T21:00:00.289Z,25.70
2018-02-15T21:02:29.790Z,24.20
2018-02-15T21:04:57.571Z,26.37
2018-02-15T21:07:26.959Z,23.70
2018-02-15T21:09:54.831Z,24.85
2018-02-15T21:12:22.827Z,23.60
2018-02-15T21:14:51.164Z,23.85
2018-02-15T21:17:19.019Z,24.23
2018-02-15T21:19:46.985Z,23.30
2018-02-15T21:22:14.509Z,24.30
2018-02-15T21:24:42.841Z,23.38
2018-02-15T21:27:10.345Z,23.62
2018-02-15T21:29:38.828Z,24.70
2018-02-15T21:32:07.108Z,24.83
2018-02-15T21:34:36.068Z,23.98
2018-02-15T21:37:04.924Z,23.33
2018-02-15T21:39:33.355Z,25.33
2018-02-15T21:42:01.648Z,25.75
2018-02-15T21:44:29.488Z,26.20
2018-02-15T21:46:57.230Z,24.85
2018-02-15T21:49:24.732Z,23.80
2018-02-15T21:51:52.613Z,25.08
2018-02-15T21:54:20.148Z,25.75
2018-02-15T21:56:47.801Z,26.05
2018-02-15T21:59:16.164Z,26.05
2018-02-15T22:01:43.676Z,25.90
2018-02-15T22:04:11.929Z,24.33
2018-02-15T22:06:40.055Z,27.00
2018-02-15T22:09:07.571Z,25.45
2018-02-15T22:11:36.063Z,24.77
2018-02-15T22:14:03.570Z,24.35
2018-02-15T22:16:32.253Z,23.15
2018-02-15T22:19:00.981Z,24.40
2018-02-15T22:21:28.753Z,23.08
2018-02-15T22:23:56.881Z,23.92
2018-02-15T22:26:25.755Z,24.05
2018-02-15T22:28:54.026Z,22.92
2018-02-15T22:31:21.506Z,22.65
2018-02-15T22:33:49.065Z,21.83
2018-02-15T22:36:19.817Z,22.52
2018-02-15T22:38:51.588Z,25.23
2018-02-15T22:41:19.082Z,23.98
2018-02-15T22:43:46.942Z,25.30
2018-02-15T22:46:14.868Z,24.73
2018-02-15T22:48:42.346Z,25.30
2018-02-15T22:51:10.109Z,24.02
2018-02-15T22:53:38.013Z,22.90
2018-02-15T22:56:06.741Z,26.17
2018-02-15T22:58:34.206Z,28.38
2018-02-15T23:01:01.678Z,39.20
2018-02-15T23:03:29.516Z,31.23
2018-02-15T23:05:57.366Z,24.17
2018-02-15T23:08:25.477Z,38.25
2018-02-15T23:10:52.957Z,30.60
2018-02-15T23:13:20.790Z,26.20
2018-02-15T23:15:48.774Z,25.60
2018-02-15T23:18:16.612Z,25.17
2018-02-15T23:20:46.526Z,26.42
2018-02-15T23:23:14.388Z,27.10
2018-02-15T23:25:48.804Z,29.30
2018-02-15T23:28:17.081Z,59.45
2018-02-15T23:30:44.843Z,39.90
2018-02-15T23:33:12.324Z,35.15
2018-02-15T23:35:39.814Z,30.90
2018-02-15T23:38:08.074Z,31.52
2018-02-15T23:40:35.786Z,29.77
2018-02-15T23:43:03.657Z,33.35
2018-02-15T23:45:31.347Z,37.75
2018-02-15T23:47:58.855Z,34.10
2018-02-15T23:50:26.434Z,35.13
2018-02-15T23:52:54.673Z,29.45
2018-02-15T23:55:23.832Z,26.27
2018-02-15T23:57:51.822Z,26.15
